Time;durP1;ratioP1;P1;durP2;ratioP2;P2;SDS_P1;SDS_P2;PMS_P1;PMS_P2;Temp;Humidity;BMP_temperature;BMP_pressure;BME280_temperature;BME280_humidity;BME280_pressure;Samples;Min_cycle;Max_cycle;Signal;HPM_P1;HPM_P2
2022/06/04 04:00:09;;;;;;;3.43;3.13;;;15.50;96.30;;;;;;6064687;23;20370;31
2022/06/04 04:02:36;;;;;;;5.47;4.40;;;15.50;96.30;;;;;;4951089;29;20453;-76
2022/06/04 04:05:01;;;;;;;5.40;4.17;;;15.50;96.30;;;;;;4953043;29;20414;-76
2022/06/04 04:07:27;;;;;;;4.10;3.80;;;15.60;96.30;;;;;;4953121;29;20418;-76
2022/06/04 04:09:52;;;;;;;4.40;4.00;;;15.70;96.30;;;;;;4936166;29;20214;-76
2022/06/04 04:12:18;;;;;;;4.87;4.40;;;15.70;96.30;;;;;;4953654;29;20199;-76
2022/06/04 04:14:43;;;;;;;4.97;4.33;;;15.70;96.30;;;;;;4958426;29;20171;-77
2022/06/04 04:17:10;;;;;;;6.60;4.67;;;15.80;96.30;;;;;;4967818;29;20171;-76
2022/06/04 04:19:36;;;;;;;5.37;4.53;;;15.80;96.30;;;;;;4951088;28;20195;-75
2022/06/04 04:22:01;;;;;;;4.73;4.43;;;15.80;96.30;;;;;;4953585;29;20438;-74
2022/06/04 04:24:27;;;;;;;4.67;4.33;;;15.80;96.30;;;;;;4953622;29;20178;-73
2022/06/04 04:26:53;;;;;;;5.20;4.73;;;15.80;96.30;;;;;;4953562;29;20178;-74
2022/06/04 04:29:19;;;;;;;5.17;4.63;;;15.90;96.30;;;;;;4952603;29;20203;-74
2022/06/04 04:31:44;;;;;;;5.60;5.20;;;16.00;96.30;;;;;;4953416;29;21070;-74
2022/06/04 04:34:10;;;;;;;8.07;5.47;;;16.10;96.30;;;;;;4953116;29;20654;-75
2022/06/04 04:36:35;;;;;;;5.37;4.97;;;16.30;96.30;;;;;;4953417;29;20234;-73
2022/06/04 04:39:01;;;;;;;6.07;5.57;;;16.50;96.30;;;;;;4952735;29;20182;-73
2022/06/04 04:41:27;;;;;;;5.23;4.83;;;16.70;96.30;;;;;;4953399;29;20314;-74
2022/06/04 04:43:52;;;;;;;7.23;5.20;;;16.90;96.30;;;;;;4936152;29;20189;-75
2022/06/04 04:46:19;;;;;;;5.63;5.23;;;17.00;96.30;;;;;;4953094;29;20265;-74
2022/06/04 04:48:46;;;;;;;5.13;4.73;;;17.30;96.30;;;;;;4952280;29;20265;-75
2022/06/04 04:51:22;;;;;;;5.47;5.07;;;17.60;96.30;;;;;;4953414;29;20941;-74
2022/06/04 04:53:49;;;;;;;4.87;4.50;;;18.50;96.30;;;;;;4953218;29;20953;-75
2022/06/04 04:56:16;;;;;;;5.10;4.60;;;19.10;96.30;;;;;;4947349;29;20423;-77
2022/06/04 04:58:42;;;;;;;10.33;4.10;;;19.90;96.30;;;;;;4949710;29;20411;-77
2022/06/04 05:01:15;;;;;;;5.70;4.37;;;20.30;96.30;;;;;;4943169;29;20442;-76
2022/06/04 05:03:44;;;;;;;7.60;4.33;;;20.80;96.30;;;;;;4944435;29;20175;-77
2022/06/04 05:06:11;;;;;;;4.60;3.77;;;20.80;96.30;;;;;;4953231;29;20407;-76
2022/06/04 05:08:37;;;;;;;4.47;4.17;;;21.00;96.30;;;;;;4952212;29;20414;-75
2022/06/04 05:11:11;;;;;;;4.30;3.90;;;21.10;96.30;;;;;;4953057;29;20439;-76
2022/06/04 05:13:37;;;;;;;4.27;3.87;;;21.00;96.30;;;;;;4953124;29;20461;-75
2022/06/04 05:16:03;;;;;;;4.07;3.10;;;21.00;96.30;;;;;;4952406;29;20701;-77
2022/06/04 05:18:28;;;;;;;4.23;2.90;;;21.00;96.30;;;;;;4952054;29;20175;-76
2022/06/04 05:20:54;;;;;;;4.10;3.37;;;21.40;96.30;;;;;;4943249;29;20242;-77
2022/06/04 05:23:19;;;;;;;4.10;3.10;;;22.10;96.30;;;;;;4935285;29;20180;-77
2022/06/04 05:25:45;;;;;;;3.67;3.13;;;21.80;96.30;;;;;;4934132;29;20179;-78
2022/06/04 05:28:10;;;;;;;4.83;3.10;;;21.90;96.30;;;;;;4933783;29;20198;-76
2022/06/04 05:30:36;;;;;;;4.20;3.50;;;22.00;96.30;;;;;;4934039;29;20211;-77
2022/06/04 05:33:02;;;;;;;5.70;3.70;;;22.40;96.30;;;;;;4941817;29;20526;-77
2022/06/04 05:35:27;;;;;;;3.73;3.30;;;22.50;96.30;;;;;;4937744;29;20175;-78
2022/06/04 05:37:53;;;;;;;5.70;3.43;;;22.40;96.30;;;;;;4936804;29;20422;-77
2022/06/04 05:40:18;;;;;;;4.77;3.70;;;22.10;96.30;;;;;;4937503;29;20233;-77
2022/06/04 05:42:44;;;;;;;3.90;3.60;;;21.80;96.30;;;;;;4937440;29;20218;-77
2022/06/04 05:45:10;;;;;;;3.90;3.60;;;21.50;96.30;;;;;;4938672;29;20655;-76
2022/06/04 05:47:36;;;;;;;7.17;3.57;;;21.20;96.30;;;;;;4955840;29;20179;-76
2022/06/04 05:50:01;;;;;;;4.30;3.90;;;21.40;96.30;;;;;;4950292;29;20683;-76
2022/06/04 05:52:27;;;;;;;3.43;3.23;;;21.50;96.30;;;;;;4956511;29;20446;-76
2022/06/04 05:54:52;;;;;;;4.00;3.70;;;21.90;96.30;;;;;;4956487;29;20639;-77
2022/06/04 05:57:18;;;;;;;4.63;4.23;;;21.70;96.30;;;;;;4956485;29;20171;-77
2022/06/04 05:59:43;;;;;;;4.07;3.67;;;21.40;96.30;;;;;;4955471;29;20179;-77
2022/06/04 06:02:10;;;;;;;4.03;3.40;;;21.30;96.30;;;;;;4940577;29;20215;-77
2022/06/04 06:04:36;;;;;;;3.90;3.57;;;21.30;96.30;;;;;;4937153;29;20255;-78
2022/06/04 06:07:01;;;;;;;5.20;3.53;;;21.20;96.30;;;;;;4937193;29;20979;-77
2022/06/04 06:09:28;;;;;;;3.90;3.50;;;21.20;96.30;;;;;;4938570;29;20195;-77
2022/06/04 06:11:55;;;;;;;3.83;3.53;;;21.80;96.30;;;;;;4941188;29;20205;-76
2022/06/04 06:14:22;;;;;;;3.43;3.23;;;21.90;96.30;;;;;;4941549;29;20439;-77
2022/06/04 06:16:49;;;;;;;10.50;3.83;;;21.70;96.30;;;;;;4920011;29;20927;-77
2022/06/04 06:19:16;;;;;;;3.67;3.30;;;21.30;96.30;;;;;;4936162;29;20848;-75
2022/06/04 06:21:42;;;;;;;5.07;3.50;;;20.80;96.30;;;;;;4930414;29;20883;-76
2022/06/04 06:24:09;;;;;;;4.40;3.90;;;20.50;96.30;;;;;;4927215;29;20505;-75
2022/06/04 06:26:44;;;;;;;8.03;3.60;;;20.50;96.30;;;;;;4924298;29;20446;-75
2022/06/04 06:29:10;;;;;;;6.70;3.60;;;20.50;96.30;;;;;;4922221;29;20816;-78
2022/06/04 06:31:36;;;;;;;3.70;3.10;;;20.50;96.30;;;;;;4928414;29;20445;-76
2022/06/04 06:34:02;;;;;;;5.93;3.70;;;20.30;96.30;;;;;;4936596;29;20251;-73
2022/06/04 06:36:28;;;;;;;3.30;3.10;;;20.10;96.30;;;;;;4936410;29;20172;-75
2022/06/04 06:38:54;;;;;;;4.10;3.03;;;20.20;96.30;;;;;;4936027;29;20175;-73
2022/06/04 06:41:23;;;;;;;4.27;3.10;;;20.30;96.30;;;;;;4936485;29;20851;-73
2022/06/04 06:43:51;;;;;;;4.50;4.10;;;20.10;96.30;;;;;;4935441;29;20540;-73
2022/06/04 06:46:28;;;;;;;8.27;4.10;;;20.00;96.30;;;;;;4919341;29;20434;-74
2022/06/04 06:48:58;;;;;;;4.97;3.50;;;20.00;96.30;;;;;;4935901;29;20490;-74
2022/06/04 06:51:29;;;;;;;5.23;4.10;;;19.90;96.30;;;;;;4935887;29;20535;-74
2022/06/04 06:53:55;;;;;;;4.53;4.03;;;19.90;96.30;;;;;;4936162;29;20447;-75
2022/06/04 06:56:24;;;;;;;6.27;4.83;;;19.80;96.30;;;;;;4936256;29;20416;-77
2022/06/04 06:58:50;;;;;;;7.53;4.57;;;19.70;96.30;;;;;;4918464;29;20441;-75
2022/06/04 07:01:16;;;;;;;5.60;4.83;;;19.60;96.30;;;;;;4936444;29;20554;-76
2022/06/04 07:03:42;;;;;;;5.00;4.60;;;19.40;96.30;;;;;;4919108;29;20640;-78
2022/06/04 07:06:12;;;;;;;9.00;4.57;;;19.20;96.30;;;;;;4936168;29;20888;-77
2022/06/04 07:08:39;;;;;;;5.17;4.77;;;19.20;96.30;;;;;;4918230;29;20451;-77
2022/06/04 07:11:05;;;;;;;8.63;4.80;;;19.30;96.30;;;;;;4935795;29;20491;-76
2022/06/04 07:13:31;;;;;;;6.37;4.37;;;19.40;96.30;;;;;;4935695;29;20499;-76
2022/06/04 07:15:57;;;;;;;4.63;4.23;;;19.50;96.30;;;;;;4918807;29;20518;-76
2022/06/04 07:18:23;;;;;;;4.70;4.30;;;19.70;96.30;;;;;;4935386;29;20698;-76
2022/06/04 07:20:48;;;;;;;5.73;4.33;;;19.90;96.30;;;;;;4935307;29;20459;-77
2022/06/04 07:23:15;;;;;;;4.80;4.40;;;20.10;96.30;;;;;;4934727;29;20167;-76
2022/06/04 07:25:44;;;;;;;5.27;4.70;;;20.50;96.30;;;;;;4931068;29;20176;-77
2022/06/04 07:28:11;;;;;;;5.13;4.70;;;20.60;96.30;;;;;;4933128;29;20942;-77
2022/06/04 07:30:37;;;;;;;5.30;4.87;;;20.70;96.30;;;;;;4934582;29;20482;-77
2022/06/04 07:33:02;;;;;;;5.07;4.57;;;20.60;96.30;;;;;;4934665;29;20919;-77
2022/06/04 07:35:28;;;;;;;5.20;4.70;;;20.70;96.30;;;;;;4934716;29;20194;-76
2022/06/04 07:37:53;;;;;;;6.90;4.80;;;20.90;96.30;;;;;;4917810;29;20513;-76
2022/06/04 07:40:19;;;;;;;4.87;4.37;;;21.20;96.30;;;;;;4918401;29;20215;-77
2022/06/04 07:42:45;;;;;;;5.07;4.50;;;22.20;96.30;;;;;;4918285;29;20654;-78
2022/06/04 07:45:11;;;;;;;3.97;3.67;;;23.00;96.30;;;;;;4935413;29;20512;-78
2022/06/04 07:47:40;;;;;;;5.20;4.70;;;23.50;96.30;;;;;;4934790;29;20422;-78
2022/06/04 07:50:06;;;;;;;5.03;4.63;;;23.40;96.30;;;;;;4934811;29;20961;-78
2022/06/04 07:52:34;;;;;;;5.70;4.47;;;23.30;96.30;;;;;;4917985;29;20491;-78
2022/06/04 07:55:00;;;;;;;6.67;4.20;;;23.30;96.30;;;;;;4934741;29;20822;-78
2022/06/04 07:57:25;;;;;;;6.43;4.43;;;23.60;96.30;;;;;;4934715;29;20420;-80
2022/06/04 07:59:50;;;;;;;5.77;4.50;;;23.60;96.30;;;;;;4935022;29;20243;-78
2022/06/04 08:02:16;;;;;;;4.03;3.67;;;24.50;96.30;;;;;;4935259;29;20258;-76
2022/06/04 08:04:42;;;;;;;4.60;4.20;;;25.00;96.30;;;;;;4934846;29;20231;-77
2022/06/04 08:07:07;;;;;;;5.27;3.37;;;25.90;96.30;;;;;;4934937;29;20179;-80
2022/06/04 08:09:33;;;;;;;5.03;3.63;;;27.00;96.30;;;;;;4917284;29;20282;-77
2022/06/04 08:12:00;;;;;;;4.20;3.30;;;27.30;94.70;;;;;;4934913;29;20214;-76
2022/06/04 08:14:26;;;;;;;7.43;3.50;;;27.30;96.30;;;;;;4935106;29;20437;-78
2022/06/04 08:16:58;;;;;;;7.60;3.70;;;27.50;96.10;;;;;;4934735;29;20414;-77
2022/06/04 08:19:27;;;;;;;5.70;3.53;;;27.20;95.00;;;;;;4934007;29;20919;-77
2022/06/04 08:21:52;;;;;;;4.17;3.87;;;26.20;96.30;;;;;;4934664;29;20458;-76
2022/06/04 08:24:20;;;;;;;5.20;3.53;;;26.10;96.30;;;;;;4934656;29;20419;-76
2022/06/04 08:26:53;;;;;;;4.17;3.73;;;26.40;96.30;;;;;;4934503;29;20178;-76
2022/06/04 08:29:19;;;;;;;3.93;3.63;;;26.60;95.30;;;;;;4934127;29;20955;-76
2022/06/04 08:31:45;;;;;;;3.33;3.00;;;26.10;94.90;;;;;;4934756;29;20442;-75
2022/06/04 08:34:11;;;;;;;3.90;3.60;;;25.70;96.30;;;;;;4934700;29;20980;-76
2022/06/04 08:36:37;;;;;;;3.83;3.53;;;25.60;96.30;;;;;;4934734;29;20167;-76
2022/06/04 08:39:03;;;;;;;3.43;3.13;;;25.60;96.30;;;;;;4920981;29;20194;-77
2022/06/04 08:42:05;;;;;;;3.30;3.00;;;26.30;95.70;;;;;;4908467;29;20286;-78
2022/06/04 08:44:39;;;;;;;3.20;3.00;;;27.40;93.40;;;;;;4925922;29;21053;-78
2022/06/04 08:47:07;;;;;;;3.67;3.30;;;28.00;92.90;;;;;;4925767;29;20947;-77
2022/06/04 08:49:47;;;;;;;3.33;2.67;;;28.90;90.60;;;;;;4927747;29;20454;-79
2022/06/04 08:52:38;;;;;;;2.63;2.40;;;28.60;89.00;;;;;;4929131;29;20475;-78
2022/06/04 08:58:55;;;;;;;3.00;2.70;;;27.90;87.90;;;;;;4928854;29;20922;-77
2022/06/04 09:01:27;;;;;;;3.13;2.70;;;26.20;92.80;;;;;;4922509;29;20447;-77
2022/06/04 09:04:27;;;;;;;6.50;2.93;;;26.30;94.40;;;;;;4915577;29;20814;-78
2022/06/04 09:07:22;;;;;;;2.63;2.37;;;26.10;93.70;;;;;;4918382;29;20463;-76
2022/06/04 09:09:57;;;;;;;3.70;2.57;;;25.90;95.50;;;;;;4921087;29;20993;-77
2022/06/04 09:12:35;;;;;;;2.57;2.37;;;25.50;96.30;;;;;;4918760;29;20444;-78
2022/06/04 09:15:32;;;;;;;22.70;16.40;;;25.30;96.30;;;;;;4918564;29;20519;-76
2022/06/04 09:18:09;;;;;;;4.70;3.87;;;25.80;93.20;;;;;;4919479;29;20388;-77
2022/06/04 09:20:40;;;;;;;5.37;3.30;;;26.00;92.30;;;;;;4937608;29;20435;-75
2022/06/04 09:23:18;;;;;;;3.70;2.60;;;25.70;95.00;;;;;;4937608;29;20406;-76
2022/06/04 09:25:51;;;;;;;6.90;2.83;;;25.60;94.70;;;;;;4937800;29;20390;-76
2022/06/04 09:28:45;;;;;;;6.03;2.60;;;25.50;96.30;;;;;;4937140;29;20449;-76
2022/06/04 09:31:27;;;;;;;4.60;2.60;;;25.40;96.30;;;;;;4920481;29;20459;-77
2022/06/04 09:34:03;;;;;;;2.30;2.10;;;24.80;96.20;;;;;;4937620;29;20434;-76
2022/06/04 09:36:33;;;;;;;9.83;5.30;;;24.50;96.30;;;;;;4920425;29;20419;-74
2022/06/04 09:39:03;;;;;;;2.90;2.57;;;24.10;96.30;;;;;;4937241;29;20415;-78
2022/06/04 09:41:31;;;;;;;4.87;3.03;;;23.70;96.30;;;;;;4937515;29;20970;-76
2022/06/04 09:44:05;;;;;;;5.17;3.97;;;23.90;96.30;;;;;;4937690;29;20410;-75
2022/06/04 09:46:32;;;;;;;3.20;2.50;;;24.40;96.30;;;;;;4937125;29;20404;-76
2022/06/04 09:48:58;;;;;;;9.47;7.03;;;24.80;96.30;;;;;;4937079;29;20451;-76
2022/06/04 09:51:27;;;;;;;15.03;3.17;;;25.20;96.30;;;;;;4937729;29;20443;-75
2022/06/04 09:54:02;;;;;;;3.13;2.10;;;24.80;96.30;;;;;;4937483;29;20974;-75
2022/06/04 09:56:30;;;;;;;4.00;2.07;;;24.00;96.30;;;;;;4937485;29;20758;-75
2022/06/04 09:59:16;;;;;;;2.60;2.30;;;23.80;96.30;;;;;;4936847;29;20412;-75
2022/06/04 10:01:52;;;;;;;2.10;1.90;;;23.50;96.30;;;;;;4937277;29;20451;-75
2022/06/04 10:04:18;;;;;;;2.23;2.03;;;23.50;96.30;;;;;;4937400;29;20418;-76
2022/06/04 10:06:44;;;;;;;3.37;2.07;;;;;;;;;;4919885;29;20415;-74
2022/06/04 10:12:14;;;;;;;3.00;2.40;;;23.40;96.30;;;;;;4926075;29;20255;-77
2022/06/04 10:14:41;;;;;;;5.90;2.30;;;23.40;96.30;;;;;;4932034;29;20439;-77
2022/06/04 10:17:17;;;;;;;2.43;2.23;;;23.00;96.30;;;;;;4936744;29;20408;-80
2022/06/04 10:19:53;;;;;;;6.03;2.60;;;22.80;96.30;;;;;;4936654;29;20431;-74
2022/06/04 10:22:19;;;;;;;2.30;2.10;;;22.70;96.30;;;;;;4936932;29;20455;-74
2022/06/04 10:25:04;;;;;;;3.73;2.67;;;22.70;96.30;;;;;;4937294;29;20971;-74
2022/06/04 10:27:48;;;;;;;3.83;2.50;;;22.60;96.30;;;;;;4911511;29;20184;-74
2022/06/04 10:30:22;;;;;;;4.40;2.60;;;22.70;96.30;;;;;;4936884;29;20447;-74
2022/06/04 10:33:17;;;;;;;2.40;2.10;;;22.50;96.30;;;;;;4937004;29;20426;-75
2022/06/04 10:36:20;;;;;;;3.53;3.00;;;22.60;96.30;;;;;;4872186;29;20464;-77
2022/06/04 10:39:11;;;;;;;2.23;2.10;;;22.30;96.30;;;;;;4918106;29;20452;-75
2022/06/04 10:41:57;;;;;;;7.50;2.20;;;22.40;96.30;;;;;;4917538;29;20762;-75
2022/06/04 10:44:56;;;;;;;2.57;2.37;;;22.40;96.30;;;;;;4917462;29;20413;-75
2022/06/04 10:47:22;;;;;;;2.80;2.60;;;;;;;;;;4917416;29;20899;-75
2022/06/04 10:50:16;;;;;;;2.60;2.43;;;22.10;96.30;;;;;;4916876;29;20467;-75
2022/06/04 10:52:43;;;;;;;2.63;2.43;;;22.10;96.30;;;;;;4918781;29;20188;-76
2022/06/04 10:55:39;;;;;;;2.60;2.40;;;22.00;96.30;;;;;;4936229;29;20926;-75
2022/06/04 10:58:32;;;;;;;3.13;2.50;;;22.00;96.30;;;;;;4919032;29;20418;-75
2022/06/04 11:01:09;;;;;;;2.00;1.90;;;21.80;96.30;;;;;;4935860;29;20447;-75
2022/06/04 11:03:41;;;;;;;2.90;2.70;;;21.80;96.30;;;;;;4936235;29;20454;-76
2022/06/04 11:06:29;;;;;;;2.97;2.10;;;22.20;96.30;;;;;;4917927;29;20420;-75
2022/06/04 11:09:04;;;;;;;4.07;2.30;;;22.50;96.30;;;;;;4916776;29;20968;-75
2022/06/04 11:11:38;;;;;;;3.77;2.30;;;22.40;96.30;;;;;;4916856;29;20480;-74
2022/06/04 11:14:10;;;;;;;2.33;2.13;;;22.40;96.30;;;;;;4916902;29;20472;-75
2022/06/04 11:16:52;;;;;;;6.73;2.30;;;22.10;96.30;;;;;;4917094;29;20404;-75
2022/06/04 11:19:33;;;;;;;6.33;2.30;;;22.10;96.30;;;;;;4916637;29;20893;-74
2022/06/04 11:22:18;;;;;;;3.00;2.53;;;22.00;96.30;;;;;;4916796;29;20523;-74
2022/06/04 11:24:51;;;;;;;2.70;2.43;;;21.70;96.30;;;;;;4916670;29;20420;-74
2022/06/04 11:27:16;;;;;;;2.80;2.00;;;22.00;96.30;;;;;;4916676;29;20412;-76
2022/06/04 11:29:42;;;;;;;1.80;1.70;;;21.80;96.30;;;;;;4915352;29;20456;-73
2022/06/04 11:32:26;;;;;;;3.77;2.10;;;21.60;96.30;;;;;;4915844;29;20222;-73
2022/06/04 11:35:13;;;;;;;2.40;1.93;;;21.50;96.30;;;;;;4919175;29;20187;-73
2022/06/04 11:38:03;;;;;;;3.00;2.27;;;21.40;96.30;;;;;;4934885;29;20427;-74
2022/06/04 11:40:38;;;;;;;5.10;2.00;;;21.20;96.30;;;;;;4934641;29;20423;-77
2022/06/04 11:43:21;;;;;;;3.17;2.53;;;21.10;96.30;;;;;;4935229;29;20423;-74
2022/06/04 11:46:05;;;;;;;1.80;1.70;;;21.20;96.30;;;;;;4935263;29;20406;-73
2022/06/04 11:48:57;;;;;;;2.40;2.10;;;21.20;96.30;;;;;;4934544;29;20423;-73
2022/06/04 11:51:44;;;;;;;2.00;1.90;;;21.00;96.30;;;;;;4935033;29;20436;-73
2022/06/04 11:54:47;;;;;;;3.00;2.20;;;21.00;96.30;;;;;;4935382;29;20479;-73
2022/06/04 11:57:27;;;;;;;3.30;2.23;;;21.10;96.30;;;;;;4935102;29;20891;-74
2022/06/04 12:00:28;;;;;;;2.30;2.10;;;21.10;96.30;;;;;;4934968;29;20539;-73
2022/06/04 12:03:20;;;;;;;3.20;2.23;;;21.20;96.30;;;;;;4935227;29;20400;-73
2022/06/04 12:06:08;;;;;;;2.50;2.17;;;21.20;96.30;;;;;;4934795;29;20888;-73
2022/06/04 12:08:41;;;;;;;3.47;2.60;;;21.40;96.30;;;;;;4934368;29;20403;-73
2022/06/04 12:11:38;;;;;;;2.20;2.00;;;21.60;96.30;;;;;;4934866;29;20542;-73
2022/06/04 12:14:22;;;;;;;3.47;2.30;;;22.00;96.30;;;;;;4934808;29;20392;-76
2022/06/04 12:17:16;;;;;;;3.67;2.00;;;22.50;96.30;;;;;;4934871;29;20427;-73
2022/06/04 12:25:39;;;;;;;2.70;2.50;;;22.70;96.30;;;;;;4916149;29;20403;-74
2022/06/04 12:28:29;;;;;;;5.20;3.00;;;22.70;96.30;;;;;;4915325;29;20424;-74
2022/06/04 12:30:58;;;;;;;4.13;3.40;;;23.00;96.30;;;;;;4915569;29;20475;-73
2022/06/04 12:33:28;;;;;;;8.47;3.30;;;23.20;96.30;;;;;;4915799;29;20420;-73
2022/06/04 12:35:56;;;;;;;3.20;2.90;;;23.20;96.30;;;;;;4915726;29;20416;-74
2022/06/04 12:38:25;;;;;;;5.23;3.70;;;23.10;96.30;;;;;;4915265;29;20950;-74
2022/06/04 12:40:51;;;;;;;5.13;3.30;;;22.80;96.30;;;;;;4917493;29;20435;-73
2022/06/04 12:43:30;;;;;;;6.23;3.20;;;22.40;96.30;;;;;;4919372;29;20470;-73
2022/06/04 12:46:10;;;;;;;2.90;2.70;;;22.40;96.30;;;;;;4919605;29;20408;-74
2022/06/04 12:48:49;;;;;;;3.83;2.60;;;22.70;96.30;;;;;;4919094;29;20404;-74
2022/06/04 12:51:45;;;;;;;36.60;3.97;;;22.80;96.30;;;;;;4919291;29;20455;-73
2022/06/04 12:54:37;;;;;;;4.73;2.90;;;22.90;96.30;;;;;;4921119;29;20419;-75
2022/06/04 12:57:21;;;;;;;2.50;2.40;;;22.60;96.30;;;;;;4936448;29;20402;-78
2022/06/04 13:00:03;;;;;;;3.63;2.50;;;22.40;96.30;;;;;;4920601;29;20920;-79
2022/06/04 13:02:42;;;;;;;4.77;2.27;;;22.40;96.30;;;;;;4938677;29;20607;-78
2022/06/04 13:05:18;;;;;;;3.90;2.30;;;22.30;96.30;;;;;;4924753;29;20818;-77
2022/06/04 13:08:23;;;;;;;2.40;2.20;;;22.60;96.30;;;;;;4940962;29;20450;-78
2022/06/04 13:11:00;;;;;;;4.33;2.50;;;22.60;96.30;;;;;;4940549;29;20467;-78
2022/06/04 13:13:50;;;;;;;3.67;2.53;;;22.50;96.30;;;;;;4940440;29;20400;-77
2022/06/04 13:16:27;;;;;;;6.23;2.80;;;22.30;96.30;;;;;;4939555;29;20482;-78
2022/06/04 13:19:08;;;;;;;2.30;2.20;;;22.40;96.30;;;;;;4940186;29;20392;-78
2022/06/04 13:21:39;;;;;;;3.67;3.17;;;22.40;96.30;;;;;;4939319;29;20942;-78
2022/06/04 13:24:12;;;;;;;3.50;3.00;;;22.20;96.30;;;;;;4941250;29;20911;-77
2022/06/04 13:26:56;;;;;;;4.27;3.10;;;22.30;96.30;;;;;;4939505;29;20534;-78
2022/06/04 13:29:28;;;;;;;5.50;3.40;;;22.40;96.30;;;;;;4938664;29;20465;-78
2022/06/04 13:32:03;;;;;;;4.40;3.10;;;22.70;96.30;;;;;;4941033;29;20474;-78
2022/06/04 13:34:36;;;;;;;5.17;3.60;;;22.70;96.30;;;;;;4939985;29;20431;-78
2022/06/04 13:37:05;;;;;;;4.33;3.90;;;22.70;96.30;;;;;;4947993;29;20422;-76
2022/06/04 13:39:33;;;;;;;4.33;3.70;;;23.20;96.30;;;;;;4952658;29;20805;-80
2022/06/04 13:42:09;;;;;;;6.40;3.70;;;24.60;96.30;;;;;;4938678;29;20475;-79
2022/06/04 13:44:41;;;;;;;6.63;3.70;;;24.60;96.30;;;;;;4938542;29;20502;-77
2022/06/04 13:47:17;;;;;;;6.03;3.67;;;24.90;96.30;;;;;;4943475;29;20418;-78
2022/06/04 13:49:45;;;;;;;6.00;3.57;;;24.70;96.30;;;;;;4958303;29;20474;-78
2022/06/04 13:52:18;;;;;;;4.17;3.57;;;24.20;96.30;;;;;;4956641;28;20489;-78
2022/06/04 13:54:54;;;;;;;9.30;4.10;;;23.40;96.30;;;;;;4940828;29;20438;-77
2022/06/04 13:57:34;;;;;;;4.80;3.93;;;22.80;96.30;;;;;;4951413;29;20478;-78
2022/06/04 14:00:23;;;;;;;4.67;3.97;;;22.60;96.30;;;;;;4951310;29;20439;-77
2022/06/04 14:02:54;;;;;;;6.23;3.77;;;22.40;96.30;;;;;;4957849;29;20426;-78
2022/06/04 14:05:44;;;;;;;4.03;3.43;;;22.30;96.30;;;;;;4941916;29;20418;-77
2022/06/04 14:08:12;;;;;;;5.13;3.97;;;22.20;96.30;;;;;;4934678;29;20420;-79
2022/06/04 14:10:38;;;;;;;6.30;4.33;;;21.90;96.30;;;;;;4940886;29;20967;-77
2022/06/04 14:13:31;;;;;;;12.30;4.17;;;21.70;96.30;;;;;;4959250;29;20420;-78
2022/06/04 14:16:36;;;;;;;5.00;4.50;;;21.30;96.30;;;;;;4932852;29;20195;-78
2022/06/04 14:19:16;;;;;;;4.87;4.33;;;21.10;96.30;;;;;;4919988;29;20791;-78
2022/06/04 14:22:11;;;;;;;5.47;4.70;;;20.90;96.30;;;;;;4937008;29;20435;-78
2022/06/04 14:25:04;;;;;;;4.50;4.10;;;20.90;96.30;;;;;;4920380;29;20427;-78
2022/06/04 14:27:57;;;;;;;7.20;4.47;;;21.00;96.30;;;;;;4948763;29;20434;-80
2022/06/04 14:30:47;;;;;;;8.10;5.03;;;21.10;96.30;;;;;;4930581;29;20465;-77
2022/06/04 14:33:19;;;;;;;4.93;4.27;;;21.10;96.30;;;;;;4948345;29;20411;-77
2022/06/04 14:35:55;;;;;;;6.90;4.63;;;20.90;96.30;;;;;;4929978;29;20426;-78
2022/06/04 14:38:22;;;;;;;7.00;4.93;;;21.30;96.30;;;;;;4947517;29;20414;-78
2022/06/04 14:41:12;;;;;;;5.13;4.73;;;22.10;96.30;;;;;;4947968;29;20447;-78
2022/06/04 14:43:58;;;;;;;4.47;4.10;;;22.90;96.30;;;;;;4950371;29;20424;-79
2022/06/04 14:46:42;;;;;;;6.13;4.47;;;23.10;96.30;;;;;;4949791;29;20783;-78
2022/06/04 14:49:22;;;;;;;5.20;4.03;;;22.50;96.30;;;;;;4945944;29;20420;-79
2022/06/04 14:52:13;;;;;;;6.03;5.00;;;22.30;96.30;;;;;;4945377;29;20439;-79
2022/06/04 14:54:40;;;;;;;4.70;4.30;;;22.00;96.30;;;;;;4932866;29;20407;-78
2022/06/04 14:57:47;;;;;;;15.30;4.30;;;21.80;96.30;;;;;;4940293;29;21684;-78
2022/06/04 15:00:26;;;;;;;5.40;4.20;;;21.70;96.30;;;;;;4957425;29;20407;-77
2022/06/04 15:03:19;;;;;;;7.60;4.83;;;21.80;96.30;;;;;;4957129;28;21072;-78
2022/06/04 15:06:03;;;;;;;5.80;5.40;;;21.90;96.30;;;;;;4956879;29;20410;-78
2022/06/04 15:08:54;;;;;;;6.50;5.90;;;22.10;96.30;;;;;;4957048;29;20539;-78
2022/06/04 15:11:56;;;;;;;7.53;6.03;;;22.60;96.30;;;;;;4940441;29;20466;-79
2022/06/04 15:14:46;;;;;;;7.33;6.10;;;22.70;96.30;;;;;;4953033;29;20403;-79
2022/06/04 15:17:38;;;;;;;7.00;6.37;;;22.10;96.30;;;;;;4935997;29;20490;-77
2022/06/04 15:20:32;;;;;;;6.60;5.70;;;22.70;96.30;;;;;;4918933;29;20895;-77
2022/06/04 15:23:26;;;;;;;9.80;5.33;;;22.70;96.30;;;;;;4936310;29;20419;-78
2022/06/04 15:26:00;;;;;;;9.43;5.93;;;22.30;96.30;;;;;;4937272;29;20463;-77
2022/06/04 15:34:09;;;;;;;6.23;5.63;;;21.90;96.30;;;;;;4954538;29;20387;-77
2022/06/04 15:36:54;;;;;;;6.07;5.57;;;21.70;96.30;;;;;;4955061;29;20403;-78
2022/06/04 15:39:33;;;;;;;5.90;5.30;;;21.50;96.30;;;;;;4937460;29;20931;-78
2022/06/04 15:42:16;;;;;;;6.00;5.40;;;21.30;96.30;;;;;;4953863;29;20524;-76
2022/06/04 15:45:15;;;;;;;6.27;5.77;;;21.50;96.30;;;;;;4936127;29;21088;-78
2022/06/04 15:47:50;;;;;;;13.90;6.60;;;21.80;96.30;;;;;;4935254;29;20418;-78
2022/06/04 15:56:09;;;;;;;6.60;6.00;;;23.10;96.30;;;;;;4936073;29;20406;-76
2022/06/04 15:58:34;;;;;;;5.87;5.30;;;23.30;96.30;;;;;;4935073;29;20404;-76
2022/06/04 16:01:19;;;;;;;8.30;6.83;;;23.50;96.30;;;;;;4918059;29;20538;-78
2022/06/04 16:03:54;;;;;;;7.30;6.70;;;23.70;96.30;;;;;;4941317;29;20194;-77
2022/06/04 16:06:29;;;;;;;7.87;7.27;;;23.90;96.30;;;;;;4943767;29;20414;-79
2022/06/04 16:09:12;;;;;;;7.60;7.00;;;23.90;96.30;;;;;;4945725;29;21024;-78
2022/06/04 16:11:56;;;;;;;8.63;6.70;;;23.90;96.30;;;;;;4953960;29;20442;-78
2022/06/04 16:14:47;;;;;;;7.43;6.83;;;23.60;96.30;;;;;;4936953;28;20429;-77
2022/06/04 16:17:23;;;;;;;11.17;6.40;;;23.20;96.30;;;;;;4955830;29;20411;-77
2022/06/04 16:19:59;;;;;;;7.00;6.30;;;23.20;96.30;;;;;;4954604;29;20394;-77
2022/06/04 16:22:40;;;;;;;6.10;5.60;;;23.20;96.30;;;;;;4955383;29;20865;-79
2022/06/04 16:25:24;;;;;;;7.10;6.40;;;23.30;96.30;;;;;;4954704;29;20426;-78
2022/06/04 16:28:07;;;;;;;7.47;6.77;;;23.00;96.30;;;;;;4954401;29;20402;-78
2022/06/04 16:30:33;;;;;;;6.83;6.13;;;22.80;96.30;;;;;;4942007;29;20980;-77
2022/06/04 16:33:16;;;;;;;7.50;6.83;;;22.80;96.30;;;;;;4946715;29;20434;-76
2022/06/04 16:35:48;;;;;;;6.97;6.30;;;22.90;96.30;;;;;;4942402;29;20438;-76
2022/06/04 16:43:34;;;;;;;6.80;6.30;;;22.20;96.30;;;;;;4945053;29;20406;-79
2022/06/04 16:46:04;;;;;;;7.63;6.37;;;22.00;96.30;;;;;;4945776;29;20426;-76
2022/06/04 16:48:33;;;;;;;6.60;6.10;;;21.80;96.30;;;;;;4927482;29;20797;-78
2022/06/04 16:51:00;;;;;;;8.37;5.87;;;21.80;96.30;;;;;;4944097;29;20466;-77
2022/06/04 16:53:28;;;;;;;8.40;6.53;;;21.90;96.30;;;;;;4943025;29;20430;-76
2022/06/04 16:55:54;;;;;;;6.33;5.73;;;21.90;96.30;;;;;;4943062;29;20492;-77
2022/06/04 16:58:19;;;;;;;7.63;5.53;;;21.90;96.30;;;;;;4950877;29;20426;-79
2022/06/04 17:01:10;;;;;;;8.40;6.10;;;21.70;96.30;;;;;;4939136;29;20218;-78
2022/06/04 17:03:39;;;;;;;7.37;6.50;;;21.70;96.30;;;;;;4924395;29;20655;-78
2022/06/04 17:06:30;;;;;;;11.83;5.63;;;21.80;96.30;;;;;;4925145;29;20569;-78
2022/06/04 17:09:10;;;;;;;6.20;5.70;;;21.70;96.30;;;;;;4923931;29;20423;-79
2022/06/04 17:11:54;;;;;;;6.30;5.20;;;21.50;96.30;;;;;;4922317;29;20436;-78
2022/06/04 17:14:50;;;;;;;5.23;4.60;;;21.50;96.30;;;;;;4923379;29;20404;-78
2022/06/04 17:17:33;;;;;;;5.97;4.57;;;21.40;96.30;;;;;;4916090;29;20984;-78
2022/06/04 17:20:26;;;;;;;7.33;5.30;;;21.30;96.30;;;;;;4915738;29;20405;-78
2022/06/04 17:23:04;;;;;;;6.97;4.90;;;21.20;96.30;;;;;;4915409;29;20408;-79
2022/06/04 17:25:50;;;;;;;7.90;4.90;;;21.00;96.30;;;;;;4898511;29;20424;-78
2022/06/04 17:28:40;;;;;;;5.70;4.80;;;21.00;96.30;;;;;;4917759;29;20416;-78
2022/06/04 17:31:19;;;;;;;7.27;5.17;;;20.90;96.30;;;;;;4920163;29;20559;-78
2022/06/04 17:33:58;;;;;;;5.30;4.90;;;20.70;96.30;;;;;;4920534;29;20416;-78
2022/06/04 17:36:42;;;;;;;23.07;5.07;;;20.60;96.30;;;;;;4902765;29;20427;-77
2022/06/04 17:39:33;;;;;;;6.30;5.30;;;20.50;96.30;;;;;;4900914;29;20408;-77
2022/06/04 17:42:01;;;;;;;5.60;5.10;;;20.40;96.30;;;;;;4921493;29;20424;-78
2022/06/04 17:44:26;;;;;;;7.50;5.90;;;20.40;96.30;;;;;;4902450;29;20422;-77
2022/06/04 17:46:53;;;;;;;5.53;4.80;;;20.30;96.30;;;;;;4919960;29;20423;-77
2022/06/04 17:49:19;;;;;;;7.90;5.27;;;20.30;96.30;;;;;;4918322;29;20216;-77
2022/06/04 17:51:45;;;;;;;6.23;5.63;;;20.30;96.30;;;;;;4920154;29;20432;-76
2022/06/04 17:54:12;;;;;;;6.53;5.27;;;20.20;96.30;;;;;;4920219;29;20644;-77
2022/06/04 17:56:39;;;;;;;7.90;5.40;;;20.20;96.30;;;;;;4920072;29;20468;-78